sensor_id;sensor_type;location;lat;lon;timestamp;pressure;altitude;pressure_sealevel;temperature;humidity
64115;BME280;62188;35.640;139.748;2024-03-29T00:00:24;100551.05;;;12.52;73.81
64115;BME280;62188;35.640;139.748;2024-03-29T00:02:50;100554.59;;;12.75;73.49
64115;BME280;62188;35.640;139.748;2024-03-29T00:05:15;100554.78;;;12.29;74.48
64115;BME280;62188;35.640;139.748;2024-03-29T00:07:40;100552.77;;;12.37;75.33
64115;BME280;62188;35.640;139.748;2024-03-29T00:10:06;100545.17;;;12.16;75.96
64115;BME280;62188;35.640;139.748;2024-03-29T00:12:32;100550.13;;;11.92;77.92
64115;BME280;62188;35.640;139.748;2024-03-29T00:14:57;100532.09;;;12.32;77.20
64115;BME280;62188;35.640;139.748;2024-03-29T00:17:22;100523.20;;;11.94;78.49
64115;BME280;62188;35.640;139.748;2024-03-29T00:19:48;100511.19;;;12.28;78.12
64115;BME280;62188;35.640;139.748;2024-03-29T00:22:13;100508.20;;;12.27;79.09
64115;BME280;62188;35.640;139.748;2024-03-29T00:24:39;100542.96;;;11.52;80.00
64115;BME280;62188;35.640;139.748;2024-03-29T00:27:03;100515.07;;;12.02;80.17
64115;BME280;62188;35.640;139.748;2024-03-29T00:29:28;100492.88;;;11.48;82.48
64115;BME280;62188;35.640;139.748;2024-03-29T00:31:54;100478.10;;;11.58;81.53
64115;BME280;62188;35.640;139.748;2024-03-29T00:34:20;100446.45;;;12.17;81.21
64115;BME280;62188;35.640;139.748;2024-03-29T00:36:45;100452.58;;;12.15;80.89
64115;BME280;62188;35.640;139.748;2024-03-29T00:39:11;100447.33;;;12.35;79.84
64115;BME280;62188;35.640;139.748;2024-03-29T00:41:36;100459.60;;;11.98;80.44
64115;BME280;62188;35.640;139.748;2024-03-29T00:44:02;100429.97;;;12.17;81.45
64115;BME280;62188;35.640;139.748;2024-03-29T00:46:27;100412.04;;;12.57;79.70
64115;BME280;62188;35.640;139.748;2024-03-29T00:48:52;100400.38;;;13.01;78.34
64115;BME280;62188;35.640;139.748;2024-03-29T00:51:18;100373.19;;;12.76;78.66
64115;BME280;62188;35.640;139.748;2024-03-29T00:53:43;100379.81;;;12.97;77.76
64115;BME280;62188;35.640;139.748;2024-03-29T00:56:08;100359.24;;;12.72;79.25
64115;BME280;62188;35.640;139.748;2024-03-29T00:58:34;100353.93;;;12.80;79.02
64115;BME280;62188;35.640;139.748;2024-03-29T01:01:00;100333.73;;;12.58;80.10
64115;BME280;62188;35.640;139.748;2024-03-29T01:03:25;100366.93;;;12.51;80.27
64115;BME280;62188;35.640;139.748;2024-03-29T01:05:50;100371.01;;;12.54;80.25
64115;BME280;62188;35.640;139.748;2024-03-29T01:08:16;100329.07;;;12.38;81.57
64115;BME280;62188;35.640;139.748;2024-03-29T01:10:41;100338.43;;;13.18;78.92
64115;BME280;62188;35.640;139.748;2024-03-29T01:13:07;100327.91;;;13.08;79.86
64115;BME280;62188;35.640;139.748;2024-03-29T01:15:32;100311.77;;;13.08;78.32
64115;BME280;62188;35.640;139.748;2024-03-29T01:17:58;100323.40;;;13.17;78.36
64115;BME280;62188;35.640;139.748;2024-03-29T01:20:23;100297.32;;;13.57;77.03
64115;BME280;62188;35.640;139.748;2024-03-29T01:22:49;100299.50;;;13.59;76.87
64115;BME280;62188;35.640;139.748;2024-03-29T01:25:14;100297.52;;;13.47;77.61
64115;BME280;62188;35.640;139.748;2024-03-29T01:27:39;100290.18;;;13.84;76.86
64115;BME280;62188;35.640;139.748;2024-03-29T01:30:06;100276.17;;;13.95;77.00
64115;BME280;62188;35.640;139.748;2024-03-29T01:32:31;100296.27;;;14.38;75.63
64115;BME280;62188;35.640;139.748;2024-03-29T01:34:57;100283.07;;;14.27;75.63
64115;BME280;62188;35.640;139.748;2024-03-29T01:37:22;100278.88;;;13.72;77.51
64115;BME280;62188;35.640;139.748;2024-03-29T01:39:47;100271.42;;;13.77;78.14
64115;BME280;62188;35.640;139.748;2024-03-29T01:42:12;100255.23;;;13.42;78.76
64115;BME280;62188;35.640;139.748;2024-03-29T01:44:38;100252.13;;;13.77;78.24
64115;BME280;62188;35.640;139.748;2024-03-29T01:47:03;100254.27;;;14.00;77.41
64115;BME280;62188;35.640;139.748;2024-03-29T01:49:30;100239.22;;;13.26;79.86
64115;BME280;62188;35.640;139.748;2024-03-29T01:51:54;100251.14;;;13.74;79.07
64115;BME280;62188;35.640;139.748;2024-03-29T01:54:22;100243.89;;;14.72;76.20
64115;BME280;62188;35.640;139.748;2024-03-29T01:56:47;100254.67;;;13.73;78.89
64115;BME280;62188;35.640;139.748;2024-03-29T01:59:14;100253.71;;;14.34;77.86
64115;BME280;62188;35.640;139.748;2024-03-29T02:01:37;100260.90;;;14.09;78.91
64115;BME280;62188;35.640;139.748;2024-03-29T02:04:03;100261.12;;;14.29;78.38
64115;BME280;62188;35.640;139.748;2024-03-29T02:06:28;100251.48;;;14.11;78.85
64115;BME280;62188;35.640;139.748;2024-03-29T02:08:54;100220.53;;;14.45;78.01
64115;BME280;62188;35.640;139.748;2024-03-29T02:11:19;100232.70;;;14.32;78.12
64115;BME280;62188;35.640;139.748;2024-03-29T02:13:46;100253.41;;;14.12;77.93
64115;BME280;62188;35.640;139.748;2024-03-29T02:16:10;100241.93;;;14.70;76.85
64115;BME280;62188;35.640;139.748;2024-03-29T02:18:35;100245.96;;;14.42;77.63
64115;BME280;62188;35.640;139.748;2024-03-29T02:21:00;100221.14;;;14.71;76.79
64115;BME280;62188;35.640;139.748;2024-03-29T02:23:29;100223.02;;;14.63;76.91
64115;BME280;62188;35.640;139.748;2024-03-29T02:25:51;100226.15;;;14.52;77.31
64115;BME280;62188;35.640;139.748;2024-03-29T02:28:17;100213.65;;;14.63;76.74
64115;BME280;62188;35.640;139.748;2024-03-29T02:30:42;100203.73;;;14.57;75.62
64115;BME280;62188;35.640;139.748;2024-03-29T02:33:07;100227.60;;;15.04;75.69
64115;BME280;62188;35.640;139.748;2024-03-29T02:35:32;100185.19;;;14.84;75.58
64115;BME280;62188;35.640;139.748;2024-03-29T02:37:59;100195.84;;;15.31;74.91
64115;BME280;62188;35.640;139.748;2024-03-29T02:40:24;100199.84;;;15.58;74.21
64115;BME280;62188;35.640;139.748;2024-03-29T02:42:50;100215.18;;;14.32;76.75
64115;BME280;62188;35.640;139.748;2024-03-29T02:45:15;100189.00;;;14.80;75.92
64115;BME280;62188;35.640;139.748;2024-03-29T02:47:40;100163.32;;;15.36;75.41
64115;BME280;62188;35.640;139.748;2024-03-29T02:50:09;100196.31;;;15.36;75.52
64115;BME280;62188;35.640;139.748;2024-03-29T02:52:31;100178.99;;;15.28;75.10
64115;BME280;62188;35.640;139.748;2024-03-29T02:54:56;100173.93;;;15.38;75.27
64115;BME280;62188;35.640;139.748;2024-03-29T02:57:22;100161.86;;;15.27;74.93
64115;BME280;62188;35.640;139.748;2024-03-29T02:59:47;100161.81;;;15.26;74.75
64115;BME280;62188;35.640;139.748;2024-03-29T03:02:13;100149.80;;;15.05;74.64
64115;BME280;62188;35.640;139.748;2024-03-29T03:04:38;100145.00;;;15.04;74.25
64115;BME280;62188;35.640;139.748;2024-03-29T03:07:04;100152.44;;;15.66;73.54
64115;BME280;62188;35.640;139.748;2024-03-29T03:09:30;100153.01;;;15.45;73.83
64115;BME280;62188;35.640;139.748;2024-03-29T03:11:55;100155.98;;;15.45;73.20
64115;BME280;62188;35.640;139.748;2024-03-29T03:14:20;100173.59;;;15.51;73.48
64115;BME280;62188;35.640;139.748;2024-03-29T03:16:45;100199.02;;;15.39;73.98
64115;BME280;62188;35.640;139.748;2024-03-29T03:19:11;100184.98;;;15.67;72.33
64115;BME280;62188;35.640;139.748;2024-03-29T03:21:38;100173.22;;;16.35;70.89
64115;BME280;62188;35.640;139.748;2024-03-29T03:24:01;100179.81;;;15.49;72.30
64115;BME280;62188;35.640;139.748;2024-03-29T03:26:26;100169.56;;;16.10;70.78
64115;BME280;62188;35.640;139.748;2024-03-29T03:28:52;100179.05;;;15.56;70.61
64115;BME280;62188;35.640;139.748;2024-03-29T03:31:17;100173.01;;;16.25;69.93
64115;BME280;62188;35.640;139.748;2024-03-29T03:33:42;100162.73;;;16.21;68.92
64115;BME280;62188;35.640;139.748;2024-03-29T03:36:08;100167.03;;;16.05;68.94
64115;BME280;62188;35.640;139.748;2024-03-29T03:38:33;100161.27;;;16.04;69.45
64115;BME280;62188;35.640;139.748;2024-03-29T03:40:59;100172.51;;;16.32;68.98
64115;BME280;62188;35.640;139.748;2024-03-29T03:43:25;100164.35;;;15.82;69.42
64115;BME280;62188;35.640;139.748;2024-03-29T03:45:51;100162.98;;;16.10;69.06
64115;BME280;62188;35.640;139.748;2024-03-29T03:48:16;100148.79;;;15.85;68.94
64115;BME280;62188;35.640;139.748;2024-03-29T03:50:40;100152.11;;;15.50;68.82
64115;BME280;62188;35.640;139.748;2024-03-29T03:53:06;100130.39;;;15.76;68.54
64115;BME280;62188;35.640;139.748;2024-03-29T03:55:31;100122.74;;;16.16;67.16
64115;BME280;62188;35.640;139.748;2024-03-29T03:57:57;100129.36;;;16.54;66.07
64115;BME280;62188;35.640;139.748;2024-03-29T04:00:23;100125.53;;;16.75;65.42
64115;BME280;62188;35.640;139.748;2024-03-29T04:02:49;100121.44;;;16.71;65.25
64115;BME280;62188;35.640;139.748;2024-03-29T04:05:13;100106.29;;;16.56;65.25
64115;BME280;62188;35.640;139.748;2024-03-29T04:07:38;100102.35;;;16.71;64.22
64115;BME280;62188;35.640;139.748;2024-03-29T04:10:04;100099.27;;;16.57;64.61
64115;BME280;62188;35.640;139.748;2024-03-29T04:12:29;100107.17;;;16.74;63.61
64115;BME280;62188;35.640;139.748;2024-03-29T04:14:55;100094.59;;;17.14;63.15
64115;BME280;62188;35.640;139.748;2024-03-29T04:17:19;100118.01;;;16.43;63.46
64115;BME280;62188;35.640;139.748;2024-03-29T04:19:45;100121.01;;;16.30;64.30
64115;BME280;62188;35.640;139.748;2024-03-29T04:22:10;100117.26;;;16.58;63.79
64115;BME280;62188;35.640;139.748;2024-03-29T04:24:36;100137.51;;;16.81;62.34
64115;BME280;62188;35.640;139.748;2024-03-29T04:27:01;100155.95;;;17.15;62.21
64115;BME280;62188;35.640;139.748;2024-03-29T04:29:26;100161.68;;;17.42;61.79
64115;BME280;62188;35.640;139.748;2024-03-29T04:31:52;100173.41;;;17.12;61.28
64115;BME280;62188;35.640;139.748;2024-03-29T04:34:17;100165.44;;;17.72;60.19
64115;BME280;62188;35.640;139.748;2024-03-29T04:36:43;100158.55;;;17.42;59.76
64115;BME280;62188;35.640;139.748;2024-03-29T04:39:08;100139.22;;;17.51;59.72
64115;BME280;62188;35.640;139.748;2024-03-29T04:41:33;100141.74;;;18.03;58.46
64115;BME280;62188;35.640;139.748;2024-03-29T04:43:59;100131.00;;;17.94;58.55
64115;BME280;62188;35.640;139.748;2024-03-29T04:46:24;100140.91;;;17.87;57.88
64115;BME280;62188;35.640;139.748;2024-03-29T04:48:51;100147.20;;;18.53;56.46
64115;BME280;62188;35.640;139.748;2024-03-29T04:51:16;100151.18;;;18.68;56.48
64115;BME280;62188;35.640;139.748;2024-03-29T04:53:41;100147.56;;;18.67;56.31
64115;BME280;62188;35.640;139.748;2024-03-29T04:56:07;100146.23;;;18.29;56.27
64115;BME280;62188;35.640;139.748;2024-03-29T04:58:31;100163.57;;;17.77;56.49
64115;BME280;62188;35.640;139.748;2024-03-29T05:00:57;100164.14;;;18.36;56.05
64115;BME280;62188;35.640;139.748;2024-03-29T05:03:23;100170.39;;;18.37;55.85
64115;BME280;62188;35.640;139.748;2024-03-29T05:05:49;100162.43;;;18.43;56.05
64115;BME280;62188;35.640;139.748;2024-03-29T05:08:13;100176.24;;;17.79;56.78
64115;BME280;62188;35.640;139.748;2024-03-29T05:10:40;100161.68;;;18.39;55.45
64115;BME280;62188;35.640;139.748;2024-03-29T05:13:06;100172.46;;;18.37;54.94
64115;BME280;62188;35.640;139.748;2024-03-29T05:15:30;100167.07;;;18.32;55.12
64115;BME280;62188;35.640;139.748;2024-03-29T05:17:56;100174.97;;;17.40;55.78
64115;BME280;62188;35.640;139.748;2024-03-29T05:20:21;100171.53;;;18.16;54.96
64115;BME280;62188;35.640;139.748;2024-03-29T05:22:46;100165.33;;;18.34;54.93
64115;BME280;62188;35.640;139.748;2024-03-29T05:25:13;100166.78;;;18.17;55.16
64115;BME280;62188;35.640;139.748;2024-03-29T05:27:37;100176.55;;;18.56;54.60
64115;BME280;62188;35.640;139.748;2024-03-29T05:30:03;100161.13;;;18.16;54.67
64115;BME280;62188;35.640;139.748;2024-03-29T05:32:29;100149.68;;;18.56;54.42
64115;BME280;62188;35.640;139.748;2024-03-29T05:34:54;100154.62;;;18.56;54.45
64115;BME280;62188;35.640;139.748;2024-03-29T05:37:18;100151.97;;;18.66;54.42
64115;BME280;62188;35.640;139.748;2024-03-29T05:39:44;100140.69;;;18.70;54.19
64115;BME280;62188;35.640;139.748;2024-03-29T05:42:09;100145.74;;;18.66;54.15
64115;BME280;62188;35.640;139.748;2024-03-29T05:44:36;100147.44;;;18.64;54.29
64115;BME280;62188;35.640;139.748;2024-03-29T05:47:01;100142.05;;;18.28;54.64
64115;BME280;62188;35.640;139.748;2024-03-29T05:49:25;100131.91;;;18.35;54.57
64115;BME280;62188;35.640;139.748;2024-03-29T05:51:51;100127.58;;;17.93;54.86
64115;BME280;62188;35.640;139.748;2024-03-29T05:54:16;100122.64;;;17.99;54.73
64115;BME280;62188;35.640;139.748;2024-03-29T05:56:42;100121.24;;;17.88;55.35
64115;BME280;62188;35.640;139.748;2024-03-29T05:59:08;100118.00;;;17.62;55.56
64115;BME280;62188;35.640;139.748;2024-03-29T06:01:33;100127.26;;;18.21;54.50
64115;BME280;62188;35.640;139.748;2024-03-29T06:03:59;100132.03;;;17.93;54.75
64115;BME280;62188;35.640;139.748;2024-03-29T06:06:23;100133.08;;;18.23;54.30
64115;BME280;62188;35.640;139.748;2024-03-29T06:08:50;100134.57;;;18.20;54.33
64115;BME280;62188;35.640;139.748;2024-03-29T06:11:14;100133.21;;;18.53;54.20
64115;BME280;62188;35.640;139.748;2024-03-29T06:13:40;100134.68;;;18.18;54.70
64115;BME280;62188;35.640;139.748;2024-03-29T06:16:06;100133.12;;;18.30;54.36
64115;BME280;62188;35.640;139.748;2024-03-29T06:18:30;100140.90;;;18.37;53.86
64115;BME280;62188;35.640;139.748;2024-03-29T06:20:56;100147.23;;;18.51;53.38
64115;BME280;62188;35.640;139.748;2024-03-29T06:23:21;100143.29;;;18.63;53.49
64115;BME280;62188;35.640;139.748;2024-03-29T06:25:46;100150.13;;;18.73;53.37
64115;BME280;62188;35.640;139.748;2024-03-29T06:28:13;100160.60;;;18.83;53.22
64115;BME280;62188;35.640;139.748;2024-03-29T06:30:38;100156.90;;;18.47;53.13
64115;BME280;62188;35.640;139.748;2024-03-29T06:33:03;100162.16;;;18.34;53.34
64115;BME280;62188;35.640;139.748;2024-03-29T06:35:28;100163.90;;;18.62;52.57
64115;BME280;62188;35.640;139.748;2024-03-29T06:37:54;100166.46;;;18.99;52.49
64115;BME280;62188;35.640;139.748;2024-03-29T06:40:20;100164.52;;;19.08;52.48
64115;BME280;62188;35.640;139.748;2024-03-29T06:42:45;100156.78;;;18.83;52.24
64115;BME280;62188;35.640;139.748;2024-03-29T06:45:10;100151.75;;;18.89;52.09
64115;BME280;62188;35.640;139.748;2024-03-29T06:47:36;100157.39;;;18.91;51.77
64115;BME280;62188;35.640;139.748;2024-03-29T06:50:01;100160.05;;;18.81;51.63
64115;BME280;62188;35.640;139.748;2024-03-29T06:52:27;100166.66;;;18.66;51.34
64115;BME280;62188;35.640;139.748;2024-03-29T06:54:52;100164.19;;;18.96;51.01
64115;BME280;62188;35.640;139.748;2024-03-29T06:57:18;100162.44;;;18.85;50.93
64115;BME280;62188;35.640;139.748;2024-03-29T06:59:43;100159.53;;;18.53;51.23
64115;BME280;62188;35.640;139.748;2024-03-29T07:02:08;100151.98;;;18.93;51.10
64115;BME280;62188;35.640;139.748;2024-03-29T07:04:34;100151.78;;;18.87;51.31
64115;BME280;62188;35.640;139.748;2024-03-29T07:07:01;100151.47;;;19.02;51.11
64115;BME280;62188;35.640;139.748;2024-03-29T07:09:25;100150.27;;;19.10;50.52
64115;BME280;62188;35.640;139.748;2024-03-29T07:11:51;100148.46;;;18.89;50.76
64115;BME280;62188;35.640;139.748;2024-03-29T07:14:17;100143.57;;;19.08;50.56
64115;BME280;62188;35.640;139.748;2024-03-29T07:16:41;100143.04;;;18.70;50.98
64115;BME280;62188;35.640;139.748;2024-03-29T07:19:07;100146.50;;;18.70;50.80
64115;BME280;62188;35.640;139.748;2024-03-29T07:21:32;100151.30;;;18.65;50.91
64115;BME280;62188;35.640;139.748;2024-03-29T07:23:57;100146.87;;;18.78;50.41
64115;BME280;62188;35.640;139.748;2024-03-29T07:26:23;100136.82;;;18.83;50.20
64115;BME280;62188;35.640;139.748;2024-03-29T07:28:49;100137.65;;;18.98;50.15
64115;BME280;62188;35.640;139.748;2024-03-29T07:31:13;100141.36;;;18.83;50.44
64115;BME280;62188;35.640;139.748;2024-03-29T07:33:39;100142.86;;;18.37;51.12
64115;BME280;62188;35.640;139.748;2024-03-29T07:36:05;100133.45;;;18.90;50.77
64115;BME280;62188;35.640;139.748;2024-03-29T07:38:31;100132.73;;;18.80;50.63
64115;BME280;62188;35.640;139.748;2024-03-29T07:40:56;100135.50;;;18.56;51.14
64115;BME280;62188;35.640;139.748;2024-03-29T07:43:21;100146.35;;;18.78;50.94
64115;BME280;62188;35.640;139.748;2024-03-29T07:45:47;100154.23;;;18.73;50.84
64115;BME280;62188;35.640;139.748;2024-03-29T07:48:13;100164.68;;;18.81;50.71
64115;BME280;62188;35.640;139.748;2024-03-29T07:50:38;100174.52;;;18.59;51.42
64115;BME280;62188;35.640;139.748;2024-03-29T07:53:02;100179.20;;;18.68;50.63
64115;BME280;62188;35.640;139.748;2024-03-29T07:55:28;100179.98;;;19.12;50.49
64115;BME280;62188;35.640;139.748;2024-03-29T07:57:53;100185.97;;;18.89;50.66
64115;BME280;62188;35.640;139.748;2024-03-29T08:00:20;100186.23;;;18.95;50.54
64115;BME280;62188;35.640;139.748;2024-03-29T08:02:44;100191.38;;;18.25;51.57
64115;BME280;62188;35.640;139.748;2024-03-29T08:05:10;100190.77;;;18.66;51.01
64115;BME280;62188;35.640;139.748;2024-03-29T08:07:35;100197.92;;;18.91;50.71
64115;BME280;62188;35.640;139.748;2024-03-29T08:10:01;100207.05;;;18.56;51.08
64115;BME280;62188;35.640;139.748;2024-03-29T08:12:26;100213.79;;;18.95;50.79
64115;BME280;62188;35.640;139.748;2024-03-29T08:14:52;100216.02;;;18.75;50.95
64115;BME280;62188;35.640;139.748;2024-03-29T08:17:17;100221.90;;;18.13;51.42
64115;BME280;62188;35.640;139.748;2024-03-29T08:19:43;100227.88;;;18.51;51.09
64115;BME280;62188;35.640;139.748;2024-03-29T08:22:09;100232.07;;;18.87;50.95
64115;BME280;62188;35.640;139.748;2024-03-29T08:24:34;100239.55;;;18.69;50.93
64115;BME280;62188;35.640;139.748;2024-03-29T08:26:59;100245.49;;;18.78;50.66
64115;BME280;62188;35.640;139.748;2024-03-29T08:29:24;100246.52;;;19.00;50.80
64115;BME280;62188;35.640;139.748;2024-03-29T08:31:50;100254.17;;;18.69;50.80
64115;BME280;62188;35.640;139.748;2024-03-29T08:34:15;100260.07;;;18.77;50.60
64115;BME280;62188;35.640;139.748;2024-03-29T08:36:41;100265.08;;;18.57;50.59
64115;BME280;62188;35.640;139.748;2024-03-29T08:39:05;100267.99;;;18.69;50.75
64115;BME280;62188;35.640;139.748;2024-03-29T08:41:31;100273.33;;;18.68;50.67
64115;BME280;62188;35.640;139.748;2024-03-29T08:43:56;100279.63;;;18.60;50.60
64115;BME280;62188;35.640;139.748;2024-03-29T08:46:22;100278.77;;;18.49;51.08
64115;BME280;62188;35.640;139.748;2024-03-29T08:48:47;100280.74;;;18.62;50.50
64115;BME280;62188;35.640;139.748;2024-03-29T08:51:12;100285.05;;;18.91;50.58
64115;BME280;62188;35.640;139.748;2024-03-29T08:53:38;100292.17;;;18.73;50.86
64115;BME280;62188;35.640;139.748;2024-03-29T08:56:05;100302.07;;;18.45;50.57
64115;BME280;62188;35.640;139.748;2024-03-29T08:58:29;100302.01;;;18.46;50.56
64115;BME280;62188;35.640;139.748;2024-03-29T09:00:55;100305.07;;;18.66;50.71
64115;BME280;62188;35.640;139.748;2024-03-29T09:03:20;100312.86;;;18.94;50.67
64115;BME280;62188;35.640;139.748;2024-03-29T09:05:45;100315.08;;;18.54;50.81
64115;BME280;62188;35.640;139.748;2024-03-29T09:08:10;100319.73;;;18.64;50.66
64115;BME280;62188;35.640;139.748;2024-03-29T09:10:36;100321.50;;;18.32;51.07
64115;BME280;62188;35.640;139.748;2024-03-29T09:13:02;100322.97;;;18.88;50.52
64115;BME280;62188;35.640;139.748;2024-03-29T09:15:27;100325.17;;;18.53;51.09
64115;BME280;62188;35.640;139.748;2024-03-29T09:17:52;100326.03;;;18.34;51.46
64115;BME280;62188;35.640;139.748;2024-03-29T09:20:18;100329.98;;;18.32;51.10
64115;BME280;62188;35.640;139.748;2024-03-29T09:22:44;100332.61;;;18.37;51.23
64115;BME280;62188;35.640;139.748;2024-03-29T09:25:09;100335.47;;;18.51;50.78
64115;BME280;62188;35.640;139.748;2024-03-29T09:27:34;100340.83;;;18.53;50.77
64115;BME280;62188;35.640;139.748;2024-03-29T09:29:59;100346.40;;;18.58;50.54
64115;BME280;62188;35.640;139.748;2024-03-29T09:32:25;100346.36;;;18.53;50.62
64115;BME280;62188;35.640;139.748;2024-03-29T09:34:50;100347.89;;;18.58;50.56
64115;BME280;62188;35.640;139.748;2024-03-29T09:37:16;100351.63;;;18.35;50.46
64115;BME280;62188;35.640;139.748;2024-03-29T09:39:41;100355.21;;;18.63;49.94
64115;BME280;62188;35.640;139.748;2024-03-29T09:42:07;100363.78;;;18.28;50.17
64115;BME280;62188;35.640;139.748;2024-03-29T09:44:33;100371.77;;;18.49;50.24
64115;BME280;62188;35.640;139.748;2024-03-29T09:46:58;100374.79;;;18.25;50.30
64115;BME280;62188;35.640;139.748;2024-03-29T09:49:23;100376.15;;;18.29;50.41
64115;BME280;62188;35.640;139.748;2024-03-29T09:51:48;100371.18;;;18.49;50.54
64115;BME280;62188;35.640;139.748;2024-03-29T09:54:14;100372.92;;;18.23;50.84
64115;BME280;62188;35.640;139.748;2024-03-29T09:56:39;100375.76;;;18.21;50.82
64115;BME280;62188;35.640;139.748;2024-03-29T09:59:04;100383.09;;;18.18;50.81
64115;BME280;62188;35.640;139.748;2024-03-29T10:01:32;100388.93;;;18.25;51.03
64115;BME280;62188;35.640;139.748;2024-03-29T10:03:57;100395.39;;;18.33;50.51
64115;BME280;62188;35.640;139.748;2024-03-29T10:06:23;100388.34;;;18.11;50.61
64115;BME280;62188;35.640;139.748;2024-03-29T10:08:47;100391.08;;;18.32;50.64
64115;BME280;62188;35.640;139.748;2024-03-29T10:11:12;100392.80;;;18.07;50.56
64115;BME280;62188;35.640;139.748;2024-03-29T10:13:38;100396.11;;;18.30;50.43
64115;BME280;62188;35.640;139.748;2024-03-29T10:16:03;100395.44;;;18.28;50.16
64115;BME280;62188;35.640;139.748;2024-03-29T10:18:29;100398.11;;;18.31;49.73
64115;BME280;62188;35.640;139.748;2024-03-29T10:20:59;100398.21;;;18.20;49.72
64115;BME280;62188;35.640;139.748;2024-03-29T10:23:20;100405.09;;;17.84;49.45
64115;BME280;62188;35.640;139.748;2024-03-29T10:25:45;100406.79;;;18.15;49.48
64115;BME280;62188;35.640;139.748;2024-03-29T10:28:11;100410.12;;;18.15;50.18
64115;BME280;62188;35.640;139.748;2024-03-29T10:30:36;100419.43;;;18.17;50.70
64115;BME280;62188;35.640;139.748;2024-03-29T10:33:01;100429.80;;;18.14;51.12
64115;BME280;62188;35.640;139.748;2024-03-29T10:35:27;100438.33;;;18.11;50.29
64115;BME280;62188;35.640;139.748;2024-03-29T10:37:53;100442.57;;;18.12;50.71
64115;BME280;62188;35.640;139.748;2024-03-29T10:40:17;100439.76;;;17.98;50.71
64115;BME280;62188;35.640;139.748;2024-03-29T10:42:42;100441.60;;;18.11;50.47
64115;BME280;62188;35.640;139.748;2024-03-29T10:45:08;100446.00;;;17.88;49.88
64115;BME280;62188;35.640;139.748;2024-03-29T10:47:34;100452.46;;;18.12;49.30
64115;BME280;62188;35.640;139.748;2024-03-29T10:50:00;100454.15;;;18.13;48.88
64115;BME280;62188;35.640;139.748;2024-03-29T10:52:26;100465.09;;;18.11;48.44
64115;BME280;62188;35.640;139.748;2024-03-29T10:54:51;100473.64;;;18.11;48.38
64115;BME280;62188;35.640;139.748;2024-03-29T10:57:20;100478.58;;;18.13;48.46
64115;BME280;62188;35.640;139.748;2024-03-29T10:59:44;100483.55;;;18.16;48.05
64115;BME280;62188;35.640;139.748;2024-03-29T11:02:13;100486.50;;;18.17;48.03
64115;BME280;62188;35.640;139.748;2024-03-29T11:04:35;100489.17;;;18.17;47.85
64115;BME280;62188;35.640;139.748;2024-03-29T11:07:00;100488.98;;;18.17;47.66
64115;BME280;62188;35.640;139.748;2024-03-29T11:09:23;100493.84;;;18.18;47.52
64115;BME280;62188;35.640;139.748;2024-03-29T11:11:51;100497.57;;;18.13;47.30
64115;BME280;62188;35.640;139.748;2024-03-29T11:14:20;100498.77;;;18.11;47.14
64115;BME280;62188;35.640;139.748;2024-03-29T11:16:41;100495.40;;;18.12;46.98
64115;BME280;62188;35.640;139.748;2024-03-29T11:19:05;100499.23;;;18.12;47.31
64115;BME280;62188;35.640;139.748;2024-03-29T11:21:30;100498.59;;;17.88;47.08
64115;BME280;62188;35.640;139.748;2024-03-29T11:23:56;100506.19;;;18.16;47.13
64115;BME280;62188;35.640;139.748;2024-03-29T11:26:21;100516.79;;;18.15;47.49
64115;BME280;62188;35.640;139.748;2024-03-29T11:28:51;100524.02;;;17.87;47.93
64115;BME280;62188;35.640;139.748;2024-03-29T11:31:15;100522.12;;;18.21;47.86
64115;BME280;62188;35.640;139.748;2024-03-29T11:33:44;100523.42;;;17.97;47.52
64115;BME280;62188;35.640;139.748;2024-03-29T11:36:10;100532.05;;;18.00;47.99
64115;BME280;62188;35.640;139.748;2024-03-29T11:38:34;100536.89;;;18.24;47.78
64115;BME280;62188;35.640;139.748;2024-03-29T11:43:19;100550.05;;;18.23;47.76
64115;BME280;62188;35.640;139.748;2024-03-29T11:45:46;100554.16;;;18.05;47.96
64115;BME280;62188;35.640;139.748;2024-03-29T11:48:13;100559.16;;;18.10;47.64
64115;BME280;62188;35.640;139.748;2024-03-29T11:50:37;100564.00;;;18.11;47.69
64115;BME280;62188;35.640;139.748;2024-03-29T11:53:05;100571.29;;;18.34;48.09
64115;BME280;62188;35.640;139.748;2024-03-29T11:55:27;100576.35;;;18.35;48.52
64115;BME280;62188;35.640;139.748;2024-03-29T11:57:53;100580.68;;;18.12;49.19
64115;BME280;62188;35.640;139.748;2024-03-29T12:00:19;100576.55;;;18.40;49.67
64115;BME280;62188;35.640;139.748;2024-03-29T12:02:43;100578.55;;;18.45;51.31
64115;BME280;62188;35.640;139.748;2024-03-29T12:05:10;100575.35;;;18.55;52.80
64115;BME280;62188;35.640;139.748;2024-03-29T12:07:34;100574.03;;;18.55;51.88
64115;BME280;62188;35.640;139.748;2024-03-29T12:10:00;100571.22;;;18.56;51.46
64115;BME280;62188;35.640;139.748;2024-03-29T12:12:26;100568.79;;;18.33;50.30
64115;BME280;62188;35.640;139.748;2024-03-29T12:14:52;100569.11;;;18.30;50.33
64115;BME280;62188;35.640;139.748;2024-03-29T12:17:17;100570.15;;;18.51;50.41
64115;BME280;62188;35.640;139.748;2024-03-29T12:19:42;100574.12;;;18.45;50.96
64115;BME280;62188;35.640;139.748;2024-03-29T12:22:08;100577.56;;;18.37;50.76